sensor_id;sensor_type;location;lat;lon;timestamp;temperature;humidity
5172;DHT22;2605;49.770;9.868;2022-08-21T00:00:12;16.90;99.90
5172;DHT22;2605;49.770;9.868;2022-08-21T00:02:48;16.90;99.90
5172;DHT22;2605;49.770;9.868;2022-08-21T00:05:15;16.80;99.90
5172;DHT22;2605;49.770;9.868;2022-08-21T00:07:40;16.80;99.90
5172;DHT22;2605;49.770;9.868;2022-08-21T00:10:06;16.80;99.90
5172;DHT22;2605;49.770;9.868;2022-08-21T00:12:32;16.80;99.90
5172;DHT22;2605;49.770;9.868;2022-08-21T00:14:58;16.80;99.90
5172;DHT22;2605;49.770;9.868;2022-08-21T00:17:23;16.70;99.90
5172;DHT22;2605;49.770;9.868;2022-08-21T00:19:49;16.70;99.90
5172;DHT22;2605;49.770;9.868;2022-08-21T00:22:14;16.60;99.90
5172;DHT22;2605;49.770;9.868;2022-08-21T00:24:40;16.60;99.90
5172;DHT22;2605;49.770;9.868;2022-08-21T00:27:06;16.60;99.90
5172;DHT22;2605;49.770;9.868;2022-08-21T00:29:31;16.60;99.90
5172;DHT22;2605;49.770;9.868;2022-08-21T00:31:57;16.50;99.90
5172;DHT22;2605;49.770;9.868;2022-08-21T00:34:22;16.50;99.90
5172;DHT22;2605;49.770;9.868;2022-08-21T00:36:48;16.40;99.90
5172;DHT22;2605;49.770;9.868;2022-08-21T00:39:13;16.40;99.90
5172;DHT22;2605;49.770;9.868;2022-08-21T00:41:40;16.30;99.90
5172;DHT22;2605;49.770;9.868;2022-08-21T00:44:08;16.30;99.90
5172;DHT22;2605;49.770;9.868;2022-08-21T00:46:33;16.30;99.90
5172;DHT22;2605;49.770;9.868;2022-08-21T00:49:02;16.30;99.90
5172;DHT22;2605;49.770;9.868;2022-08-21T00:51:38;16.40;99.90
5172;DHT22;2605;49.770;9.868;2022-08-21T00:54:05;16.20;99.90
5172;DHT22;2605;49.770;9.868;2022-08-21T00:56:32;16.20;99.90
5172;DHT22;2605;49.770;9.868;2022-08-21T00:58:58;16.20;99.90
5172;DHT22;2605;49.770;9.868;2022-08-21T01:01:24;16.10;99.90
5172;DHT22;2605;49.770;9.868;2022-08-21T01:03:49;16.10;99.90
5172;DHT22;2605;49.770;9.868;2022-08-21T01:06:16;16.10;99.90
5172;DHT22;2605;49.770;9.868;2022-08-21T01:08:42;16.10;99.90
5172;DHT22;2605;49.770;9.868;2022-08-21T01:11:07;16.00;99.90
5172;DHT22;2605;49.770;9.868;2022-08-21T01:13:36;16.00;99.90
5172;DHT22;2605;49.770;9.868;2022-08-21T01:16:04;15.90;99.90
5172;DHT22;2605;49.770;9.868;2022-08-21T01:18:33;15.90;99.90
5172;DHT22;2605;49.770;9.868;2022-08-21T01:21:12;16.00;99.90
5172;DHT22;2605;49.770;9.868;2022-08-21T01:23:42;15.90;99.90
5172;DHT22;2605;49.770;9.868;2022-08-21T01:26:08;15.90;99.90
5172;DHT22;2605;49.770;9.868;2022-08-21T01:28:42;15.80;99.90
5172;DHT22;2605;49.770;9.868;2022-08-21T01:31:10;15.80;99.90
5172;DHT22;2605;49.770;9.868;2022-08-21T01:33:38;15.70;99.90
5172;DHT22;2605;49.770;9.868;2022-08-21T01:36:04;15.70;99.90
5172;DHT22;2605;49.770;9.868;2022-08-21T01:38:31;15.70;99.90
5172;DHT22;2605;49.770;9.868;2022-08-21T01:40:56;15.70;99.90
5172;DHT22;2605;49.770;9.868;2022-08-21T01:43:22;15.60;99.90
5172;DHT22;2605;49.770;9.868;2022-08-21T01:45:47;15.60;99.90
5172;DHT22;2605;49.770;9.868;2022-08-21T01:48:13;15.60;99.90
5172;DHT22;2605;49.770;9.868;2022-08-21T01:50:38;15.50;99.90
5172;DHT22;2605;49.770;9.868;2022-08-21T01:53:04;15.50;99.90
5172;DHT22;2605;49.770;9.868;2022-08-21T01:55:30;15.40;99.90
5172;DHT22;2605;49.770;9.868;2022-08-21T01:57:57;15.40;99.90
5172;DHT22;2605;49.770;9.868;2022-08-21T02:00:23;15.40;99.90
5172;DHT22;2605;49.770;9.868;2022-08-21T02:02:49;15.40;99.90
5172;DHT22;2605;49.770;9.868;2022-08-21T02:05:14;15.40;99.90
5172;DHT22;2605;49.770;9.868;2022-08-21T02:07:47;15.30;99.90
5172;DHT22;2605;49.770;9.868;2022-08-21T02:10:16;15.30;99.90
5172;DHT22;2605;49.770;9.868;2022-08-21T02:12:42;15.30;99.90
5172;DHT22;2605;49.770;9.868;2022-08-21T02:15:08;15.30;99.90
5172;DHT22;2605;49.770;9.868;2022-08-21T02:17:40;15.20;99.90
5172;DHT22;2605;49.770;9.868;2022-08-21T02:20:07;15.20;99.90
5172;DHT22;2605;49.770;9.868;2022-08-21T02:22:32;15.20;99.90
5172;DHT22;2605;49.770;9.868;2022-08-21T02:25:01;15.20;99.90
5172;DHT22;2605;49.770;9.868;2022-08-21T02:27:26;15.10;99.90
5172;DHT22;2605;49.770;9.868;2022-08-21T02:29:52;15.10;99.90
5172;DHT22;2605;49.770;9.868;2022-08-21T02:32:18;15.10;99.90
5172;DHT22;2605;49.770;9.868;2022-08-21T02:34:43;15.10;99.90
5172;DHT22;2605;49.770;9.868;2022-08-21T02:37:09;15.10;99.90
5172;DHT22;2605;49.770;9.868;2022-08-21T02:39:34;15.10;99.90
5172;DHT22;2605;49.770;9.868;2022-08-21T02:42:00;15.10;99.90
5172;DHT22;2605;49.770;9.868;2022-08-21T02:44:26;15.00;99.90
5172;DHT22;2605;49.770;9.868;2022-08-21T02:46:51;15.00;99.90
5172;DHT22;2605;49.770;9.868;2022-08-21T02:49:17;15.00;99.90
5172;DHT22;2605;49.770;9.868;2022-08-21T02:51:45;14.90;99.90
5172;DHT22;2605;49.770;9.868;2022-08-21T02:54:10;14.80;99.90
5172;DHT22;2605;49.770;9.868;2022-08-21T02:56:36;14.90;99.90
5172;DHT22;2605;49.770;9.868;2022-08-21T02:59:02;14.90;99.90
5172;DHT22;2605;49.770;9.868;2022-08-21T03:01:27;15.00;99.90
5172;DHT22;2605;49.770;9.868;2022-08-21T03:03:53;15.00;99.90
5172;DHT22;2605;49.770;9.868;2022-08-21T03:06:21;15.00;99.90
5172;DHT22;2605;49.770;9.868;2022-08-21T03:08:47;15.00;99.90
5172;DHT22;2605;49.770;9.868;2022-08-21T03:11:15;15.00;99.90
5172;DHT22;2605;49.770;9.868;2022-08-21T03:13:41;15.00;99.90
5172;DHT22;2605;49.770;9.868;2022-08-21T03:16:07;15.00;99.90
5172;DHT22;2605;49.770;9.868;2022-08-21T03:18:34;15.00;99.90
5172;DHT22;2605;49.770;9.868;2022-08-21T03:20:59;14.90;99.90
5172;DHT22;2605;49.770;9.868;2022-08-21T03:23:25;14.70;99.90
5172;DHT22;2605;49.770;9.868;2022-08-21T03:25:50;14.70;99.90
5172;DHT22;2605;49.770;9.868;2022-08-21T03:28:19;14.70;99.90
5172;DHT22;2605;49.770;9.868;2022-08-21T03:30:47;14.70;99.90
5172;DHT22;2605;49.770;9.868;2022-08-21T03:33:14;14.70;99.90
5172;DHT22;2605;49.770;9.868;2022-08-21T03:35:40;14.60;99.90
5172;DHT22;2605;49.770;9.868;2022-08-21T03:38:06;14.50;99.90
5172;DHT22;2605;49.770;9.868;2022-08-21T03:40:32;14.50;99.90
5172;DHT22;2605;49.770;9.868;2022-08-21T03:42:58;14.50;99.90
5172;DHT22;2605;49.770;9.868;2022-08-21T03:45:24;14.50;99.90
5172;DHT22;2605;49.770;9.868;2022-08-21T03:48:01;14.50;99.90
5172;DHT22;2605;49.770;9.868;2022-08-21T03:50:30;14.50;99.90
5172;DHT22;2605;49.770;9.868;2022-08-21T03:52:57;14.60;99.90
5172;DHT22;2605;49.770;9.868;2022-08-21T03:55:26;14.70;99.90
5172;DHT22;2605;49.770;9.868;2022-08-21T03:57:52;14.70;99.90
5172;DHT22;2605;49.770;9.868;2022-08-21T04:00:19;14.60;99.90
5172;DHT22;2605;49.770;9.868;2022-08-21T04:02:46;14.60;99.90
5172;DHT22;2605;49.770;9.868;2022-08-21T04:05:13;14.60;99.90
5172;DHT22;2605;49.770;9.868;2022-08-21T04:07:39;14.50;99.90
5172;DHT22;2605;49.770;9.868;2022-08-21T04:10:06;14.50;99.90
5172;DHT22;2605;49.770;9.868;2022-08-21T04:12:32;14.50;99.90
5172;DHT22;2605;49.770;9.868;2022-08-21T04:14:58;14.50;99.90
5172;DHT22;2605;49.770;9.868;2022-08-21T04:17:23;14.50;99.90
5172;DHT22;2605;49.770;9.868;2022-08-21T04:19:49;14.50;99.90
5172;DHT22;2605;49.770;9.868;2022-08-21T04:22:15;14.40;99.90
5172;DHT22;2605;49.770;9.868;2022-08-21T04:24:41;14.40;99.90
5172;DHT22;2605;49.770;9.868;2022-08-21T04:27:06;14.40;99.90
5172;DHT22;2605;49.770;9.868;2022-08-21T04:29:32;14.40;99.90
5172;DHT22;2605;49.770;9.868;2022-08-21T04:31:57;14.40;99.90
5172;DHT22;2605;49.770;9.868;2022-08-21T04:34:23;14.30;99.90
5172;DHT22;2605;49.770;9.868;2022-08-21T04:36:48;14.40;99.90
5172;DHT22;2605;49.770;9.868;2022-08-21T04:39:14;14.30;99.90
5172;DHT22;2605;49.770;9.868;2022-08-21T04:41:42;14.30;99.90
5172;DHT22;2605;49.770;9.868;2022-08-21T04:44:07;14.30;99.90
5172;DHT22;2605;49.770;9.868;2022-08-21T04:46:33;14.30;99.90
5172;DHT22;2605;49.770;9.868;2022-08-21T04:48:59;14.40;99.90
5172;DHT22;2605;49.770;9.868;2022-08-21T04:51:34;14.40;99.90
5172;DHT22;2605;49.770;9.868;2022-08-21T04:54:06;14.40;99.90
5172;DHT22;2605;49.770;9.868;2022-08-21T04:56:49;14.40;99.90
5172;DHT22;2605;49.770;9.868;2022-08-21T04:59:32;14.50;99.90
5172;DHT22;2605;49.770;9.868;2022-08-21T05:02:02;14.60;99.90
5172;DHT22;2605;49.770;9.868;2022-08-21T05:04:30;14.60;99.90
5172;DHT22;2605;49.770;9.868;2022-08-21T05:07:04;14.60;99.90
5172;DHT22;2605;49.770;9.868;2022-08-21T05:09:31;14.70;99.90
5172;DHT22;2605;49.770;9.868;2022-08-21T05:11:57;14.70;99.90
5172;DHT22;2605;49.770;9.868;2022-08-21T05:14:23;14.70;99.90
5172;DHT22;2605;49.770;9.868;2022-08-21T05:16:48;14.70;99.90
5172;DHT22;2605;49.770;9.868;2022-08-21T05:19:14;14.70;99.90
5172;DHT22;2605;49.770;9.868;2022-08-21T05:21:42;14.70;99.90
5172;DHT22;2605;49.770;9.868;2022-08-21T05:24:09;14.70;99.90
5172;DHT22;2605;49.770;9.868;2022-08-21T05:26:35;14.70;99.90
5172;DHT22;2605;49.770;9.868;2022-08-21T05:29:02;14.70;99.90
5172;DHT22;2605;49.770;9.868;2022-08-21T05:31:27;14.80;99.90
5172;DHT22;2605;49.770;9.868;2022-08-21T05:33:53;14.80;99.90
5172;DHT22;2605;49.770;9.868;2022-08-21T05:36:18;14.80;99.90
5172;DHT22;2605;49.770;9.868;2022-08-21T05:38:44;14.80;99.90
5172;DHT22;2605;49.770;9.868;2022-08-21T05:41:09;14.90;99.90
5172;DHT22;2605;49.770;9.868;2022-08-21T05:43:35;14.90;99.90
5172;DHT22;2605;49.770;9.868;2022-08-21T05:46:02;15.00;99.90
5172;DHT22;2605;49.770;9.868;2022-08-21T05:48:28;15.00;99.90
5172;DHT22;2605;49.770;9.868;2022-08-21T05:50:53;15.00;99.90
5172;DHT22;2605;49.770;9.868;2022-08-21T05:53:21;15.00;99.90
5172;DHT22;2605;49.770;9.868;2022-08-21T05:55:46;15.00;99.90
5172;DHT22;2605;49.770;9.868;2022-08-21T05:58:14;15.00;99.90
5172;DHT22;2605;49.770;9.868;2022-08-21T06:00:41;15.10;99.90
5172;DHT22;2605;49.770;9.868;2022-08-21T06:03:12;15.10;99.90
5172;DHT22;2605;49.770;9.868;2022-08-21T06:05:37;15.20;99.90
5172;DHT22;2605;49.770;9.868;2022-08-21T06:08:03;15.20;99.90
5172;DHT22;2605;49.770;9.868;2022-08-21T06:10:29;15.20;99.90
5172;DHT22;2605;49.770;9.868;2022-08-21T06:12:54;15.30;99.90
5172;DHT22;2605;49.770;9.868;2022-08-21T06:15:20;15.30;99.90
5172;DHT22;2605;49.770;9.868;2022-08-21T06:17:46;15.40;99.90
5172;DHT22;2605;49.770;9.868;2022-08-21T06:20:11;15.50;99.90
5172;DHT22;2605;49.770;9.868;2022-08-21T06:22:37;15.50;99.90
5172;DHT22;2605;49.770;9.868;2022-08-21T06:25:03;15.60;99.90
5172;DHT22;2605;49.770;9.868;2022-08-21T06:27:28;15.70;99.90
5172;DHT22;2605;49.770;9.868;2022-08-21T06:29:54;15.80;99.90
5172;DHT22;2605;49.770;9.868;2022-08-21T06:32:21;15.80;99.90
5172;DHT22;2605;49.770;9.868;2022-08-21T06:34:47;16.00;99.90
5172;DHT22;2605;49.770;9.868;2022-08-21T06:37:12;16.00;99.90
5172;DHT22;2605;49.770;9.868;2022-08-21T06:39:38;16.00;99.90
5172;DHT22;2605;49.770;9.868;2022-08-21T06:42:04;16.10;99.90
5172;DHT22;2605;49.770;9.868;2022-08-21T06:44:33;16.20;99.90
5172;DHT22;2605;49.770;9.868;2022-08-21T06:46:59;16.30;99.90
5172;DHT22;2605;49.770;9.868;2022-08-21T06:49:24;16.30;99.90
5172;DHT22;2605;49.770;9.868;2022-08-21T06:51:50;16.50;99.90
5172;DHT22;2605;49.770;9.868;2022-08-21T06:54:15;16.50;99.90
5172;DHT22;2605;49.770;9.868;2022-08-21T06:56:41;16.60;99.90
5172;DHT22;2605;49.770;9.868;2022-08-21T06:59:06;16.70;99.90
5172;DHT22;2605;49.770;9.868;2022-08-21T07:01:32;16.80;99.90
5172;DHT22;2605;49.770;9.868;2022-08-21T07:03:58;16.80;99.90
5172;DHT22;2605;49.770;9.868;2022-08-21T07:06:23;16.90;99.90
5172;DHT22;2605;49.770;9.868;2022-08-21T07:08:50;17.00;99.90
5172;DHT22;2605;49.770;9.868;2022-08-21T07:11:21;17.10;99.90
5172;DHT22;2605;49.770;9.868;2022-08-21T07:13:47;17.20;99.90
5172;DHT22;2605;49.770;9.868;2022-08-21T07:16:13;17.20;99.90
5172;DHT22;2605;49.770;9.868;2022-08-21T07:18:39;17.30;99.90
5172;DHT22;2605;49.770;9.868;2022-08-21T07:21:06;17.40;99.90
5172;DHT22;2605;49.770;9.868;2022-08-21T07:23:37;17.50;99.90
5172;DHT22;2605;49.770;9.868;2022-08-21T07:26:03;17.70;99.90
5172;DHT22;2605;49.770;9.868;2022-08-21T07:28:29;17.80;99.90
5172;DHT22;2605;49.770;9.868;2022-08-21T07:30:58;17.90;99.90
5172;DHT22;2605;49.770;9.868;2022-08-21T07:33:25;17.90;99.90
5172;DHT22;2605;49.770;9.868;2022-08-21T07:35:51;18.00;99.90
5172;DHT22;2605;49.770;9.868;2022-08-21T07:38:16;18.10;99.90
5172;DHT22;2605;49.770;9.868;2022-08-21T07:40:43;18.20;99.90
5172;DHT22;2605;49.770;9.868;2022-08-21T07:43:09;18.20;99.90
5172;DHT22;2605;49.770;9.868;2022-08-21T07:45:34;18.30;99.90
5172;DHT22;2605;49.770;9.868;2022-08-21T07:48:00;18.40;99.90
5172;DHT22;2605;49.770;9.868;2022-08-21T07:50:26;18.50;99.90
5172;DHT22;2605;49.770;9.868;2022-08-21T07:52:51;18.60;99.90
5172;DHT22;2605;49.770;9.868;2022-08-21T07:55:19;18.70;99.90
5172;DHT22;2605;49.770;9.868;2022-08-21T07:57:47;18.80;99.90
5172;DHT22;2605;49.770;9.868;2022-08-21T08:00:16;18.90;99.90
5172;DHT22;2605;49.770;9.868;2022-08-21T08:02:44;19.00;99.90
5172;DHT22;2605;49.770;9.868;2022-08-21T08:05:10;19.10;99.90
5172;DHT22;2605;49.770;9.868;2022-08-21T08:07:37;19.20;99.90
5172;DHT22;2605;49.770;9.868;2022-08-21T08:10:04;19.30;99.90
5172;DHT22;2605;49.770;9.868;2022-08-21T08:12:30;19.40;99.90
5172;DHT22;2605;49.770;9.868;2022-08-21T08:15:00;19.50;99.90
5172;DHT22;2605;49.770;9.868;2022-08-21T08:17:26;19.50;99.90
5172;DHT22;2605;49.770;9.868;2022-08-21T08:19:53;19.50;99.90
5172;DHT22;2605;49.770;9.868;2022-08-21T08:22:21;19.60;99.90
5172;DHT22;2605;49.770;9.868;2022-08-21T08:24:51;19.70;99.90
5172;DHT22;2605;49.770;9.868;2022-08-21T08:27:17;19.90;99.90
5172;DHT22;2605;49.770;9.868;2022-08-21T08:29:43;20.00;99.90
5172;DHT22;2605;49.770;9.868;2022-08-21T08:32:08;20.10;99.90
5172;DHT22;2605;49.770;9.868;2022-08-21T08:34:36;20.20;99.90
5172;DHT22;2605;49.770;9.868;2022-08-21T08:37:03;20.20;99.90
5172;DHT22;2605;49.770;9.868;2022-08-21T08:39:29;20.40;99.90
5172;DHT22;2605;49.770;9.868;2022-08-21T08:42:16;20.50;99.90
5172;DHT22;2605;49.770;9.868;2022-08-21T08:44:44;20.70;99.90
5172;DHT22;2605;49.770;9.868;2022-08-21T08:47:13;20.80;99.90
5172;DHT22;2605;49.770;9.868;2022-08-21T08:49:53;20.80;99.90
5172;DHT22;2605;49.770;9.868;2022-08-21T08:52:31;20.80;99.90
5172;DHT22;2605;49.770;9.868;2022-08-21T08:55:18;20.80;99.90
5172;DHT22;2605;49.770;9.868;2022-08-21T08:57:47;20.90;99.90
5172;DHT22;2605;49.770;9.868;2022-08-21T09:00:15;21.10;99.90
5172;DHT22;2605;49.770;9.868;2022-08-21T09:02:43;21.20;99.90
5172;DHT22;2605;49.770;9.868;2022-08-21T09:05:21;21.30;99.90
5172;DHT22;2605;49.770;9.868;2022-08-21T09:08:09;21.50;99.90
5172;DHT22;2605;49.770;9.868;2022-08-21T09:10:56;21.50;99.90
5172;DHT22;2605;49.770;9.868;2022-08-21T09:13:54;21.50;99.90
5172;DHT22;2605;49.770;9.868;2022-08-21T09:24:50;22.00;99.90
5172;DHT22;2605;49.770;9.868;2022-08-21T09:27:20;22.20;99.90
5172;DHT22;2605;49.770;9.868;2022-08-21T09:29:49;22.10;99.90
5172;DHT22;2605;49.770;9.868;2022-08-21T09:32:18;22.30;99.90
5172;DHT22;2605;49.770;9.868;2022-08-21T09:35:00;22.60;99.90
5172;DHT22;2605;49.770;9.868;2022-08-21T09:37:28;23.00;99.90
5172;DHT22;2605;49.770;9.868;2022-08-21T09:39:55;23.30;99.90
5172;DHT22;2605;49.770;9.868;2022-08-21T09:42:30;23.50;99.90
5172;DHT22;2605;49.770;9.868;2022-08-21T09:45:11;23.30;99.90
5172;DHT22;2605;49.770;9.868;2022-08-21T09:47:36;23.40;99.90
5172;DHT22;2605;49.770;9.868;2022-08-21T09:50:11;23.50;99.90
5172;DHT22;2605;49.770;9.868;2022-08-21T09:52:53;23.80;99.90
5172;DHT22;2605;49.770;9.868;2022-08-21T09:55:38;23.80;99.90
5172;DHT22;2605;49.770;9.868;2022-08-21T09:58:31;23.60;99.90
5172;DHT22;2605;49.770;9.868;2022-08-21T10:01:00;23.70;99.90
5172;DHT22;2605;49.770;9.868;2022-08-21T10:03:27;23.80;99.90
5172;DHT22;2605;49.770;9.868;2022-08-21T10:05:58;23.70;99.90
5172;DHT22;2605;49.770;9.868;2022-08-21T10:08:26;23.70;99.90
5172;DHT22;2605;49.770;9.868;2022-08-21T10:10:56;23.80;99.90
5172;DHT22;2605;49.770;9.868;2022-08-21T10:13:56;23.80;99.90
5172;DHT22;2605;49.770;9.868;2022-08-21T10:19:16;24.00;99.90
5172;DHT22;2605;49.770;9.868;2022-08-21T10:22:07;24.00;99.90
5172;DHT22;2605;49.770;9.868;2022-08-21T10:27:51;24.30;99.90
5172;DHT22;2605;49.770;9.868;2022-08-21T10:30:39;24.70;99.90
5172;DHT22;2605;49.770;9.868;2022-08-21T10:35:57;24.20;99.90
5172;DHT22;2605;49.770;9.868;2022-08-21T10:39:00;24.20;99.90
5172;DHT22;2605;49.770;9.868;2022-08-21T10:41:48;24.60;99.90
5172;DHT22;2605;49.770;9.868;2022-08-21T10:44:37;24.80;99.90
5172;DHT22;2605;49.770;9.868;2022-08-21T10:47:18;24.90;99.90
5172;DHT22;2605;49.770;9.868;2022-08-21T10:50:17;24.90;99.90
5172;DHT22;2605;49.770;9.868;2022-08-21T10:53:05;24.90;99.90
5172;DHT22;2605;49.770;9.868;2022-08-21T10:55:55;25.00;99.90
5172;DHT22;2605;49.770;9.868;2022-08-21T11:01:10;25.20;99.90
5172;DHT22;2605;49.770;9.868;2022-08-21T11:03:52;24.80;99.90
5172;DHT22;2605;49.770;9.868;2022-08-21T11:06:25;24.90;99.90
5172;DHT22;2605;49.770;9.868;2022-08-21T11:08:57;24.80;99.90
5172;DHT22;2605;49.770;9.868;2022-08-21T11:11:29;25.10;99.90
5172;DHT22;2605;49.770;9.868;2022-08-21T11:14:04;25.90;99.90
5172;DHT22;2605;49.770;9.868;2022-08-21T11:16:40;25.70;99.90
5172;DHT22;2605;49.770;9.868;2022-08-21T11:19:18;25.70;99.90
5172;DHT22;2605;49.770;9.868;2022-08-21T11:21:56;26.00;99.90
5172;DHT22;2605;49.770;9.868;2022-08-21T11:24:40;26.70;99.90
5172;DHT22;2605;49.770;9.868;2022-08-21T11:27:14;26.30;99.90
5172;DHT22;2605;49.770;9.868;2022-08-21T11:29:45;26.20;99.90
5172;DHT22;2605;49.770;9.868;2022-08-21T11:35:29;26.30;99.90
5172;DHT22;2605;49.770;9.868;2022-08-21T11:43:35;25.60;99.90
5172;DHT22;2605;49.770;9.868;2022-08-21T11:46:28;25.90;99.90
5172;DHT22;2605;49.770;9.868;2022-08-21T11:52:10;25.90;99.90
5172;DHT22;2605;49.770;9.868;2022-08-21T11:54:46;25.90;99.90
5172;DHT22;2605;49.770;9.868;2022-08-21T11:57:30;25.90;99.90
5172;DHT22;2605;49.770;9.868;2022-08-21T12:02:49;25.30;99.90
5172;DHT22;2605;49.770;9.868;2022-08-21T12:05:32;25.30;99.90
5172;DHT22;2605;49.770;9.868;2022-08-21T12:08:12;25.60;99.90
5172;DHT22;2605;49.770;9.868;2022-08-21T12:10:46;26.10;99.90
5172;DHT22;2605;49.770;9.868;2022-08-21T12:13:25;26.70;99.90
5172;DHT22;2605;49.770;9.868;2022-08-21T12:15:51;26.50;99.90
5172;DHT22;2605;49.770;9.868;2022-08-21T12:18:30;26.70;99.90
5172;DHT22;2605;49.770;9.868;2022-08-21T12:23:32;27.60;99.90
5172;DHT22;2605;49.770;9.868;2022-08-21T12:26:22;27.90;99.90
5172;DHT22;2605;49.770;9.868;2022-08-21T12:28:45;27.50;99.90
5172;DHT22;2605;49.770;9.868;2022-08-21T12:31:24;27.10;99.90
5172;DHT22;2605;49.770;9.868;2022-08-21T12:33:58;26.90;99.90
5172;DHT22;2605;49.770;9.868;2022-08-21T12:36:34;26.20;99.90
5172;DHT22;2605;49.770;9.868;2022-08-21T12:39:04;25.80;99.90
5172;DHT22;2605;49.770;9.868;2022-08-21T12:44:35;25.50;99.90
5172;DHT22;2605;49.770;9.868;2022-08-21T12:47:06;25.50;99.90
5172;DHT22;2605;49.770;9.868;2022-08-21T12:49:37;25.70;99.90
5172;DHT22;2605;49.770;9.868;2022-08-21T12:52:19;25.80;99.90
5172;DHT22;2605;49.770;9.868;2022-08-21T12:54:46;25.80;99.90
5172;DHT22;2605;49.770;9.868;2022-08-21T12:57:26;25.90;99.90
5172;DHT22;2605;49.770;9.868;2022-08-21T12:59:56;26.00;99.90
5172;DHT22;2605;49.770;9.868;2022-08-21T13:02:37;25.90;99.90
5172;DHT22;2605;49.770;9.868;2022-08-21T13:05:06;25.90;99.90
5172;DHT22;2605;49.770;9.868;2022-08-21T13:07:35;25.80;99.90
5172;DHT22;2605;49.770;9.868;2022-08-21T13:10:14;25.90;99.90
5172;DHT22;2605;49.770;9.868;2022-08-21T13:12:42;25.80;99.90
5172;DHT22;2605;49.770;9.868;2022-08-21T13:15:08;25.80;99.90
5172;DHT22;2605;49.770;9.868;2022-08-21T13:17:37;25.90;99.90
5172;DHT22;2605;49.770;9.868;2022-08-21T13:20:09;26.20;99.90
5172;DHT22;2605;49.770;9.868;2022-08-21T13:22:43;26.20;99.90
5172;DHT22;2605;49.770;9.868;2022-08-21T13:25:17;26.20;99.90
5172;DHT22;2605;49.770;9.868;2022-08-21T13:27:56;25.90;99.90
5172;DHT22;2605;49.770;9.868;2022-08-21T13:30:22;25.60;99.90
5172;DHT22;2605;49.770;9.868;2022-08-21T13:32:50;25.70;99.90
5172;DHT22;2605;49.770;9.868;2022-08-21T13:35:20;25.80;99.90
5172;DHT22;2605;49.770;9.868;2022-08-21T13:37:47;26.00;99.80
5172;DHT22;2605;49.770;9.868;2022-08-21T13:40:16;25.80;97.10
5172;DHT22;2605;49.770;9.868;2022-08-21T13:42:44;25.70;98.70
5172;DHT22;2605;49.770;9.868;2022-08-21T13:45:18;25.90;97.00
5172;DHT22;2605;49.770;9.868;2022-08-21T13:47:45;25.80;96.20
5172;DHT22;2605;49.770;9.868;2022-08-21T13:50:13;25.80;95.10
5172;DHT22;2605;49.770;9.868;2022-08-21T13:52:49;25.90;95.00
5172;DHT22;2605;49.770;9.868;2022-08-21T13:55:16;25.90;93.80
5172;DHT22;2605;49.770;9.868;2022-08-21T13:57:42;25.90;93.40
5172;DHT22;2605;49.770;9.868;2022-08-21T14:00:24;26.10;92.60
5172;DHT22;2605;49.770;9.868;2022-08-21T14:02:51;26.10;92.20
5172;DHT22;2605;49.770;9.868;2022-08-21T14:05:27;26.70;89.50
5172;DHT22;2605;49.770;9.868;2022-08-21T14:08:20;28.40;76.20
5172;DHT22;2605;49.770;9.868;2022-08-21T14:10:50;30.10;63.10
5172;DHT22;2605;49.770;9.868;2022-08-21T14:13:26;32.00;56.60
5172;DHT22;2605;49.770;9.868;2022-08-21T14:16:01;31.60;50.10
5172;DHT22;2605;49.770;9.868;2022-08-21T14:18:27;31.30;46.40
5172;DHT22;2605;49.770;9.868;2022-08-21T14:21:07;31.80;42.20
5172;DHT22;2605;49.770;9.868;2022-08-21T14:23:33;32.30;39.20
5172;DHT22;2605;49.770;9.868;2022-08-21T14:26:01;32.30;38.90
5172;DHT22;2605;49.770;9.868;2022-08-21T14:28:39;33.10;36.40
5172;DHT22;2605;49.770;9.868;2022-08-21T14:31:19;33.30;39.00
5172;DHT22;2605;49.770;9.868;2022-08-21T14:33:45;34.10;36.40
5172;DHT22;2605;49.770;9.868;2022-08-21T14:36:11;35.00;33.60
5172;DHT22;2605;49.770;9.868;2022-08-21T14:38:38;34.80;32.70
5172;DHT22;2605;49.770;9.868;2022-08-21T14:41:17;34.00;35.40
5172;DHT22;2605;49.770;9.868;2022-08-21T14:43:44;33.50;37.20
5172;DHT22;2605;49.770;9.868;2022-08-21T14:46:12;32.80;36.80
5172;DHT22;2605;49.770;9.868;2022-08-21T14:48:39;32.20;37.70
5172;DHT22;2605;49.770;9.868;2022-08-21T14:51:04;32.60;39.30
5172;DHT22;2605;49.770;9.868;2022-08-21T14:53:30;34.20;37.00
5172;DHT22;2605;49.770;9.868;2022-08-21T14:55:55;36.10;33.90
5172;DHT22;2605;49.770;9.868;2022-08-21T14:58:35;37.30;31.60
5172;DHT22;2605;49.770;9.868;2022-08-21T15:01:01;36.10;30.10
5172;DHT22;2605;49.770;9.868;2022-08-21T15:03:29;34.40;31.40
5172;DHT22;2605;49.770;9.868;2022-08-21T15:05:55;35.00;31.00
5172;DHT22;2605;49.770;9.868;2022-08-21T15:08:21;36.30;30.80
5172;DHT22;2605;49.770;9.868;2022-08-21T15:10:46;37.00;29.90
5172;DHT22;2605;49.770;9.868;2022-08-21T15:13:12;36.50;28.70
5172;DHT22;2605;49.770;9.868;2022-08-21T15:15:42;35.70;30.50
5172;DHT22;2605;49.770;9.868;2022-08-21T15:18:08;35.90;31.00
5172;DHT22;2605;49.770;9.868;2022-08-21T15:20:34;35.70;31.50
5172;DHT22;2605;49.770;9.868;2022-08-21T15:23:05;36.00;30.80
5172;DHT22;2605;49.770;9.868;2022-08-21T15:25:31;37.30;29.70
5172;DHT22;2605;49.770;9.868;2022-08-21T15:27:57;37.60;29.40
5172;DHT22;2605;49.770;9.868;2022-08-21T15:30:23;37.70;29.00
5172;DHT22;2605;49.770;9.868;2022-08-21T15:32:48;38.60;28.10
5172;DHT22;2605;49.770;9.868;2022-08-21T15:35:14;39.50;27.00
5172;DHT22;2605;49.770;9.868;2022-08-21T15:37:39;41.00;25.80
5172;DHT22;2605;49.770;9.868;2022-08-21T15:40:06;40.90;25.90
5172;DHT22;2605;49.770;9.868;2022-08-21T15:42:33;40.30;25.20
5172;DHT22;2605;49.770;9.868;2022-08-21T15:44:59;37.40;27.60
5172;DHT22;2605;49.770;9.868;2022-08-21T15:47:29;35.50;30.10
5172;DHT22;2605;49.770;9.868;2022-08-21T15:49:55;34.80;31.40
5172;DHT22;2605;49.770;9.868;2022-08-21T15:52:21;34.70;32.60
5172;DHT22;2605;49.770;9.868;2022-08-21T15:54:47;34.10;32.80
5172;DHT22;2605;49.770;9.868;2022-08-21T15:57:15;34.80;32.00
5172;DHT22;2605;49.770;9.868;2022-08-21T15:59:43;35.60;31.30
5172;DHT22;2605;49.770;9.868;2022-08-21T16:02:22;36.80;30.40
5172;DHT22;2605;49.770;9.868;2022-08-21T16:04:48;35.00;30.70
5172;DHT22;2605;49.770;9.868;2022-08-21T16:07:14;34.20;32.70
5172;DHT22;2605;49.770;9.868;2022-08-21T16:09:40;34.40;33.60
5172;DHT22;2605;49.770;9.868;2022-08-21T16:12:07;35.00;31.50
5172;DHT22;2605;49.770;9.868;2022-08-21T16:14:34;35.40;31.50
5172;DHT22;2605;49.770;9.868;2022-08-21T16:17:05;36.30;30.30
5172;DHT22;2605;49.770;9.868;2022-08-21T16:19:31;36.80;28.70
5172;DHT22;2605;49.770;9.868;2022-08-21T16:21:57;35.10;30.80
5172;DHT22;2605;49.770;9.868;2022-08-21T16:24:23;34.80;32.40
5172;DHT22;2605;49.770;9.868;2022-08-21T16:26:49;35.30;31.50
5172;DHT22;2605;49.770;9.868;2022-08-21T16:29:14;36.50;30.90
5172;DHT22;2605;49.770;9.868;2022-08-21T16:31:40;36.20;29.90
5172;DHT22;2605;49.770;9.868;2022-08-21T16:34:15;34.60;32.30
5172;DHT22;2605;49.770;9.868;2022-08-21T16:36:41;34.50;32.70
5172;DHT22;2605;49.770;9.868;2022-08-21T16:39:07;34.30;33.50
5172;DHT22;2605;49.770;9.868;2022-08-21T16:41:34;34.00;33.80
5172;DHT22;2605;49.770;9.868;2022-08-21T16:44:00;34.10;34.50
5172;DHT22;2605;49.770;9.868;2022-08-21T16:46:28;33.20;34.80
5172;DHT22;2605;49.770;9.868;2022-08-21T16:48:55;33.60;36.40
5172;DHT22;2605;49.770;9.868;2022-08-21T16:51:20;33.20;37.70
5172;DHT22;2605;49.770;9.868;2022-08-21T16:53:46;33.30;36.80
5172;DHT22;2605;49.770;9.868;2022-08-21T16:56:13;32.80;36.60